createdAt,value
2023-02-21T00:01:35.808Z,80.90
2023-02-21T00:04:56.426Z,81.00
2023-02-21T00:08:17.036Z,81.00
2023-02-21T00:11:40.644Z,81.10
2023-02-21T00:15:01.258Z,81.10
2023-02-21T00:18:23.274Z,81.30
2023-02-21T00:21:46.773Z,81.20
2023-02-21T00:25:10.238Z,81.20
2023-02-21T00:28:30.747Z,81.40
2023-02-21T00:31:54.034Z,81.50
2023-02-21T00:35:15.732Z,81.40
2023-02-21T00:38:36.099Z,81.40
2023-02-21T00:41:56.421Z,81.40
2023-02-21T00:45:18.296Z,81.50
2023-02-21T00:48:41.929Z,81.50
2023-02-21T00:52:03.575Z,81.40
2023-02-21T00:55:24.994Z,81.40
2023-02-21T00:58:45.648Z,81.40
2023-02-21T01:02:06.143Z,81.30
2023-02-21T01:05:27.059Z,81.20
2023-02-21T01:08:48.796Z,81.20
2023-02-21T01:12:09.285Z,81.20
2023-02-21T01:15:30.049Z,81.20
2023-02-21T01:18:50.885Z,81.20
2023-02-21T01:22:11.392Z,81.20
2023-02-21T01:25:34.007Z,81.20
2023-02-21T01:28:54.546Z,81.20
2023-02-21T01:32:15.131Z,81.00
2023-02-21T01:35:35.579Z,80.90
2023-02-21T01:38:58.361Z,80.80
2023-02-21T01:42:20.212Z,80.90
2023-02-21T01:46:01.981Z,81.00
2023-02-21T01:49:26.488Z,81.00
2023-02-21T01:52:47.252Z,81.10
2023-02-21T01:56:08.254Z,81.00
2023-02-21T01:59:30.214Z,80.90
2023-02-21T02:02:56.696Z,80.90
2023-02-21T02:06:21.747Z,80.70
2023-02-21T02:09:42.605Z,80.70
2023-02-21T02:13:21.021Z,80.70
2023-02-21T02:16:34.479Z,80.50
2023-02-21T02:20:22.407Z,80.70
2023-02-21T02:23:51.306Z,80.70
2023-02-21T02:27:27.823Z,80.60
2023-02-21T02:31:09.463Z,80.50
2023-02-21T02:34:41.729Z,80.50
2023-02-21T02:37:52.061Z,80.30
2023-02-21T02:41:01.779Z,80.20
2023-02-21T02:44:10.466Z,80.10
2023-02-21T02:47:19.602Z,80.00
2023-02-21T02:50:25.728Z,79.90
2023-02-21T02:53:30.980Z,80.00
2023-02-21T02:56:36.928Z,80.00
2023-02-21T02:59:44.385Z,80.00
2023-02-21T03:03:01.907Z,80.10
2023-02-21T03:06:21.427Z,80.10
2023-02-21T03:09:30.716Z,80.10
2023-02-21T03:12:38.968Z,80.20
2023-02-21T03:15:49.560Z,80.00
2023-02-21T03:18:58.075Z,79.90
2023-02-21T03:22:06.471Z,79.70
2023-02-21T03:25:10.379Z,79.40
2023-02-21T03:28:16.647Z,79.30
2023-02-21T03:31:25.782Z,79.30
2023-02-21T03:34:28.929Z,79.20
2023-02-21T03:37:36.087Z,79.10
2023-02-21T03:40:39.245Z,79.00
2023-02-21T03:43:42.356Z,78.90
2023-02-21T03:46:45.378Z,79.00
2023-02-21T03:49:48.644Z,78.90
2023-02-21T03:52:53.482Z,79.00
2023-02-21T03:55:56.546Z,78.90
2023-02-21T03:58:59.538Z,78.70
2023-02-21T04:02:02.804Z,78.90
2023-02-21T04:05:06.280Z,78.80
2023-02-21T04:08:10.702Z,78.80
2023-02-21T04:11:13.857Z,78.70
2023-02-21T04:14:17.495Z,78.20
2023-02-21T04:17:20.532Z,77.90
2023-02-21T04:20:23.633Z,77.60
2023-02-21T04:23:28.050Z,77.70
2023-02-21T04:26:31.265Z,77.50
2023-02-21T04:29:34.363Z,77.50
2023-02-21T04:32:37.413Z,77.40
2023-02-21T04:35:41.661Z,77.40
2023-02-21T04:38:46.032Z,77.40
2023-02-21T04:41:48.969Z,77.50
2023-02-21T04:45:00.000Z,77.50
2023-02-21T04:48:03.420Z,77.50
2023-02-21T04:51:15.140Z,77.40
2023-02-21T04:54:19.950Z,77.50
2023-02-21T04:57:23.043Z,77.80
2023-02-21T05:00:26.025Z,78.10
2023-02-21T05:03:29.049Z,78.60
2023-02-21T05:06:32.972Z,78.80
2023-02-21T05:09:37.297Z,79.00
2023-02-21T05:12:40.560Z,79.20
2023-02-21T05:15:44.000Z,79.40
2023-02-21T05:18:48.531Z,79.50
2023-02-21T05:21:51.560Z,79.70
2023-02-21T05:24:55.905Z,79.80
2023-02-21T05:27:59.030Z,79.70
2023-02-21T05:31:02.271Z,79.80
2023-02-21T05:34:05.410Z,80.10
2023-02-21T05:37:08.394Z,80.50
2023-02-21T05:40:14.647Z,80.70
2023-02-21T05:43:19.893Z,80.90
2023-02-21T05:46:25.711Z,81.10
2023-02-21T05:49:28.729Z,81.10
2023-02-21T05:52:32.081Z,81.30
2023-02-21T05:55:36.402Z,81.30
2023-02-21T05:58:41.829Z,81.30
2023-02-21T06:01:44.799Z,81.20
2023-02-21T06:04:47.678Z,81.20
2023-02-21T06:07:51.180Z,81.30
2023-02-21T06:10:55.854Z,81.30
2023-02-21T06:14:00.890Z,81.70
2023-02-21T06:17:03.879Z,81.60
2023-02-21T06:20:08.726Z,81.60
2023-02-21T06:23:12.845Z,81.70
2023-02-21T06:26:18.782Z,81.70
2023-02-21T06:29:21.745Z,81.30
2023-02-21T06:32:24.946Z,81.20
2023-02-21T06:35:28.014Z,81.20
2023-02-21T06:38:31.949Z,81.10
2023-02-21T06:41:36.368Z,81.10
2023-02-21T06:44:39.368Z,81.10
2023-02-21T06:47:42.423Z,81.00
2023-02-21T06:50:45.850Z,81.00
2023-02-21T06:53:51.275Z,81.10
2023-02-21T06:56:55.764Z,81.30
2023-02-21T06:59:58.798Z,81.20
2023-02-21T07:03:01.749Z,81.10
2023-02-21T07:06:04.908Z,81.20
2023-02-21T07:09:07.826Z,81.30
2023-02-21T07:12:12.190Z,81.20
2023-02-21T07:15:15.102Z,81.40
2023-02-21T07:18:18.320Z,81.30
2023-02-21T07:21:22.829Z,81.20
2023-02-21T07:24:25.729Z,81.20
2023-02-21T07:27:30.211Z,81.50
2023-02-21T07:30:33.409Z,81.60
2023-02-21T07:33:36.504Z,81.50
2023-02-21T07:36:40.403Z,81.40
2023-02-21T07:39:43.447Z,81.20
2023-02-21T07:42:48.156Z,81.00
2023-02-21T07:45:51.135Z,80.70
2023-02-21T07:48:54.150Z,80.50
2023-02-21T07:51:57.343Z,80.20
2023-02-21T07:55:00.357Z,80.00
2023-02-21T07:58:04.785Z,80.00
2023-02-21T08:01:08.308Z,79.60
2023-02-21T08:04:11.451Z,79.00
2023-02-21T08:07:14.466Z,78.90
2023-02-21T08:10:23.443Z,78.90
2023-02-21T08:13:27.830Z,78.90
2023-02-21T08:16:32.181Z,78.90
2023-02-21T08:19:37.935Z,78.70
2023-02-21T08:22:41.030Z,78.40
2023-02-21T08:25:44.014Z,77.90
2023-02-21T08:28:48.650Z,77.50
2023-02-21T08:31:51.645Z,76.10
2023-02-21T08:34:54.676Z,75.50
2023-02-21T08:38:02.617Z,75.00
2023-02-21T08:41:06.166Z,75.00
2023-02-21T08:44:11.106Z,74.70
2023-02-21T08:47:15.283Z,74.50
2023-02-21T08:50:19.427Z,74.50
2023-02-21T08:53:22.351Z,73.10
2023-02-21T08:56:26.817Z,73.00
2023-02-21T08:59:33.547Z,72.70
2023-02-21T09:02:39.864Z,72.80
2023-02-21T09:05:42.784Z,72.10
2023-02-21T09:08:45.855Z,71.90
2023-02-21T09:11:49.417Z,71.50
2023-02-21T09:14:53.771Z,71.20
2023-02-21T09:17:57.309Z,71.10
2023-02-21T09:21:00.354Z,70.80
2023-02-21T09:24:05.526Z,70.00
2023-02-21T09:27:08.547Z,70.20
2023-02-21T09:30:15.982Z,69.80
2023-02-21T09:33:19.287Z,69.20
2023-02-21T09:36:24.056Z,68.80
2023-02-21T09:39:27.082Z,68.80
2023-02-21T09:42:32.276Z,68.00
2023-02-21T09:45:38.474Z,68.60
2023-02-21T09:48:44.628Z,68.30
2023-02-21T09:51:49.191Z,68.10
2023-02-21T09:54:58.340Z,67.90
2023-02-21T09:58:01.852Z,67.80
2023-02-21T10:01:14.438Z,67.60
2023-02-21T10:04:30.394Z,67.20
2023-02-21T10:07:42.150Z,67.50
2023-02-21T10:10:48.393Z,67.80
2023-02-21T10:14:00.667Z,68.20
2023-02-21T10:17:13.245Z,67.30
2023-02-21T10:20:22.206Z,66.50
2023-02-21T10:23:32.607Z,66.50
2023-02-21T10:26:41.020Z,66.60
2023-02-21T10:29:50.726Z,66.20
2023-02-21T10:32:55.139Z,66.00
2023-02-21T10:35:58.057Z,65.80
2023-02-21T10:39:07.580Z,65.80
2023-02-21T10:42:19.069Z,65.60
2023-02-21T10:45:30.306Z,65.70
2023-02-21T10:48:37.711Z,66.00
2023-02-21T10:51:40.757Z,65.90
2023-02-21T10:55:00.313Z,66.40
2023-02-21T10:58:09.859Z,66.50
2023-02-21T11:01:15.666Z,66.10
2023-02-21T11:04:31.896Z,65.60
2023-02-21T11:07:35.838Z,65.20
2023-02-21T11:10:41.731Z,65.60
2023-02-21T11:13:44.869Z,65.50
2023-02-21T11:17:14.161Z,65.60
2023-02-21T11:20:23.523Z,65.80
2023-02-21T11:23:29.511Z,65.90
2023-02-21T11:26:37.660Z,65.50
2023-02-21T11:29:45.607Z,65.10
2023-02-21T11:32:53.479Z,65.50
2023-02-21T11:36:12.489Z,65.70
2023-02-21T11:39:18.717Z,65.70
2023-02-21T11:42:30.453Z,65.10
2023-02-21T11:45:34.227Z,65.00
2023-02-21T11:48:44.356Z,65.40
2023-02-21T11:51:53.352Z,64.10
2023-02-21T11:54:56.406Z,63.00
2023-02-21T11:58:07.668Z,62.50
2023-02-21T12:01:16.678Z,61.90
2023-02-21T12:04:35.776Z,61.80
2023-02-21T12:07:48.706Z,60.60
2023-02-21T12:11:01.504Z,60.80
2023-02-21T12:14:24.649Z,60.70
2023-02-21T12:17:44.805Z,60.70
2023-02-21T12:21:08.145Z,60.70
2023-02-21T12:24:27.331Z,60.80
2023-02-21T12:27:46.377Z,60.50
2023-02-21T12:31:19.484Z,60.60
2023-02-21T12:34:36.458Z,60.50
2023-02-21T12:37:47.359Z,61.20
2023-02-21T12:41:00.564Z,62.50
2023-02-21T12:44:14.662Z,62.70
2023-02-21T12:47:21.052Z,63.10
2023-02-21T12:50:28.471Z,63.00
2023-02-21T12:53:37.002Z,63.00
2023-02-21T12:56:46.108Z,62.20
2023-02-21T12:59:59.442Z,63.00
2023-02-21T13:03:18.726Z,62.50
2023-02-21T13:06:30.514Z,63.10
2023-02-21T13:09:37.805Z,62.30
2023-02-21T13:12:47.672Z,62.30
2023-02-21T13:15:54.025Z,62.00
2023-02-21T13:19:02.632Z,61.60
2023-02-21T13:22:46.377Z,61.70
2023-02-21T13:26:01.374Z,62.30
2023-02-21T13:29:15.538Z,61.70
2023-02-21T13:32:21.084Z,61.00
2023-02-21T13:35:30.817Z,60.50
2023-02-21T13:38:34.169Z,60.50
2023-02-21T13:41:39.647Z,60.70
2023-02-21T13:44:47.272Z,60.80
2023-02-21T13:48:22.123Z,61.10
2023-02-21T13:51:48.156Z,61.50
2023-02-21T13:55:10.944Z,61.60
2023-02-21T13:58:35.895Z,61.30
2023-02-21T14:01:44.438Z,61.70
2023-02-21T14:05:03.850Z,61.80
2023-02-21T14:08:09.142Z,61.90
2023-02-21T14:11:20.478Z,62.10
2023-02-21T14:14:27.162Z,62.00
2023-02-21T14:17:31.663Z,62.10
2023-02-21T14:20:37.533Z,61.60
2023-02-21T14:23:46.727Z,61.60
2023-02-21T14:26:56.697Z,61.40
2023-02-21T14:30:33.390Z,61.50
2023-02-21T14:33:37.976Z,61.50
2023-02-21T14:36:41.981Z,61.60
2023-02-21T14:39:51.191Z,61.20
2023-02-21T14:43:07.244Z,61.90
2023-02-21T14:46:43.414Z,61.50
2023-02-21T14:50:18.386Z,61.40
2023-02-21T14:53:51.706Z,61.50
2023-02-21T14:57:23.140Z,61.60
2023-02-21T15:00:34.230Z,61.80
2023-02-21T15:03:43.364Z,62.00
2023-02-21T15:07:01.379Z,62.10
2023-02-21T15:10:12.759Z,62.20
2023-02-21T15:13:24.527Z,62.00
2023-02-21T15:16:32.485Z,62.00
2023-02-21T15:19:36.757Z,62.10
2023-02-21T15:22:41.137Z,61.80
2023-02-21T15:25:44.538Z,61.90
2023-02-21T15:28:47.460Z,61.60
2023-02-21T15:31:53.317Z,61.80
2023-02-21T15:34:56.425Z,61.40
2023-02-21T15:38:03.838Z,61.50
2023-02-21T15:41:11.013Z,61.90
2023-02-21T15:44:19.792Z,61.70
2023-02-21T15:47:24.419Z,61.60
2023-02-21T15:50:36.215Z,61.90
2023-02-21T15:53:40.715Z,61.90
2023-02-21T15:56:44.226Z,62.10
2023-02-21T15:59:47.215Z,62.10
2023-02-21T16:02:50.207Z,61.80
2023-02-21T16:05:53.609Z,62.20
2023-02-21T16:09:02.237Z,62.40
2023-02-21T16:12:08.672Z,62.60
2023-02-21T16:15:24.904Z,62.20
2023-02-21T16:18:27.952Z,62.20
2023-02-21T16:21:31.367Z,62.30
2023-02-21T16:24:35.753Z,62.40
2023-02-21T16:27:39.757Z,62.60
2023-02-21T16:30:42.801Z,62.70
2023-02-21T16:33:45.851Z,62.80
2023-02-21T16:36:54.664Z,62.50
2023-02-21T16:39:59.096Z,63.00
2023-02-21T16:43:03.188Z,62.80
2023-02-21T16:46:06.426Z,63.20
2023-02-21T16:49:11.419Z,63.20
2023-02-21T16:52:17.464Z,63.30
2023-02-21T16:55:22.116Z,63.50
2023-02-21T16:58:29.081Z,63.60
2023-02-21T17:01:34.359Z,63.50
2023-02-21T17:04:38.553Z,63.60
2023-02-21T17:07:41.652Z,63.80
2023-02-21T17:10:46.134Z,63.70
2023-02-21T17:13:49.110Z,64.00
2023-02-21T17:16:52.373Z,64.10
2023-02-21T17:19:55.370Z,64.40
2023-02-21T17:22:59.854Z,64.50
2023-02-21T17:26:04.534Z,64.60
2023-02-21T17:29:08.035Z,64.40
2023-02-21T17:32:11.188Z,64.60
2023-02-21T17:35:14.825Z,64.80
2023-02-21T17:38:17.791Z,64.80
2023-02-21T17:41:22.950Z,64.90
2023-02-21T17:44:28.098Z,64.90
2023-02-21T17:47:31.371Z,65.00
2023-02-21T17:50:34.722Z,65.00
2023-02-21T17:53:37.722Z,65.10
2023-02-21T17:56:42.272Z,65.30
2023-02-21T17:59:45.486Z,65.10
2023-02-21T18:02:49.198Z,65.00
2023-02-21T18:05:52.463Z,65.10
2023-02-21T18:08:55.898Z,65.30
2023-02-21T18:12:01.712Z,65.20
2023-02-21T18:15:05.555Z,65.40
2023-02-21T18:18:08.609Z,65.40
2023-02-21T18:21:11.806Z,65.40
2023-02-21T18:24:16.430Z,65.40
2023-02-21T18:27:21.201Z,65.40
2023-02-21T18:30:24.402Z,65.50
2023-02-21T18:33:28.163Z,65.30
2023-02-21T18:36:31.246Z,65.50
2023-02-21T18:39:34.150Z,65.40
2023-02-21T18:42:38.590Z,65.30
2023-02-21T18:45:41.528Z,65.30
2023-02-21T18:48:46.493Z,65.30
2023-02-21T18:51:49.680Z,65.40
2023-02-21T18:54:53.033Z,65.70
2023-02-21T18:57:57.860Z,65.80
2023-02-21T19:01:01.382Z,66.00
2023-02-21T19:04:04.687Z,66.00
2023-02-21T19:07:08.959Z,65.70
2023-02-21T19:10:12.686Z,65.60
2023-02-21T19:13:17.326Z,65.40
2023-02-21T19:16:20.766Z,65.20
2023-02-21T19:19:24.158Z,65.30
2023-02-21T19:22:27.461Z,65.40
2023-02-21T19:25:31.222Z,65.30
2023-02-21T19:28:37.414Z,65.10
2023-02-21T19:31:40.826Z,64.80
2023-02-21T19:34:44.407Z,64.70
2023-02-21T19:37:47.834Z,64.90
2023-02-21T19:40:50.915Z,64.60
2023-02-21T19:43:55.369Z,64.40
2023-02-21T19:46:58.916Z,64.30
2023-02-21T19:50:02.078Z,64.30
2023-02-21T19:53:05.668Z,64.50
2023-02-21T19:56:08.665Z,64.50
2023-02-21T19:59:13.608Z,64.70
2023-02-21T20:02:17.038Z,64.70
2023-02-21T20:05:20.254Z,64.90
2023-02-21T20:08:23.644Z,64.90
2023-02-21T20:11:26.742Z,65.00
2023-02-21T20:14:32.088Z,64.70
2023-02-21T20:17:36.538Z,64.90
2023-02-21T20:20:45.281Z,64.80
2023-02-21T20:23:48.564Z,64.80
2023-02-21T20:26:52.281Z,64.90
2023-02-21T20:29:56.743Z,65.00
2023-02-21T20:33:01.330Z,64.90
2023-02-21T20:36:05.031Z,64.90
2023-02-21T20:39:10.240Z,65.10
2023-02-21T20:42:13.264Z,64.90
2023-02-21T20:45:18.631Z,64.90
2023-02-21T20:48:25.551Z,64.90
2023-02-21T20:51:33.342Z,64.80
2023-02-21T20:54:36.348Z,64.50
2023-02-21T20:57:39.317Z,64.50
2023-02-21T21:00:43.625Z,64.60
2023-02-21T21:03:46.794Z,64.70
2023-02-21T21:06:50.913Z,64.30
2023-02-21T21:09:54.372Z,64.30
2023-02-21T21:12:58.064Z,64.30
2023-02-21T21:16:02.428Z,64.50
2023-02-21T21:19:05.504Z,64.80
2023-02-21T21:22:10.663Z,65.00
2023-02-21T21:25:14.450Z,65.00
2023-02-21T21:28:17.475Z,65.10
2023-02-21T21:31:23.538Z,65.40
2023-02-21T21:34:28.665Z,65.50
2023-02-21T21:37:31.955Z,65.50
2023-02-21T21:40:34.895Z,65.50
2023-02-21T21:43:37.990Z,65.50
2023-02-21T21:46:47.433Z,65.70
2023-02-21T21:49:50.919Z,65.80
2023-02-21T21:52:57.856Z,66.00
2023-02-21T21:56:04.834Z,66.00
2023-02-21T21:59:09.339Z,66.10
2023-02-21T22:02:15.025Z,66.20
2023-02-21T22:05:21.032Z,66.20
2023-02-21T22:08:26.504Z,66.20
2023-02-21T22:11:29.435Z,66.20
2023-02-21T22:14:32.648Z,66.30
2023-02-21T22:17:37.413Z,66.40
2023-02-21T22:20:40.389Z,66.20
2023-02-21T22:23:44.697Z,66.10
2023-02-21T22:26:48.235Z,66.10
2023-02-21T22:29:52.369Z,66.10
2023-02-21T22:32:56.726Z,66.20
2023-02-21T22:35:59.882Z,66.20
2023-02-21T22:39:08.530Z,66.10
2023-02-21T22:42:12.729Z,66.20
2023-02-21T22:45:17.198Z,66.20
2023-02-21T22:48:22.624Z,66.20
2023-02-21T22:51:27.650Z,66.10
2023-02-21T22:54:31.832Z,66.00
2023-02-21T22:57:35.625Z,65.30
2023-02-21T23:00:39.260Z,65.10
2023-02-21T23:03:43.590Z,64.90
2023-02-21T23:06:46.778Z,64.70
2023-02-21T23:09:49.763Z,64.60
2023-02-21T23:12:54.808Z,64.70
2023-02-21T23:15:58.678Z,64.80
2023-02-21T23:19:06.824Z,64.60
2023-02-21T23:22:10.039Z,64.60
2023-02-21T23:25:20.673Z,64.30
2023-02-21T23:28:26.596Z,64.30
2023-02-21T23:31:30.998Z,64.40
2023-02-21T23:34:40.994Z,64.40
2023-02-21T23:37:44.625Z,64.40
2023-02-21T23:40:51.836Z,64.50
2023-02-21T23:43:54.805Z,64.60
2023-02-21T23:46:59.289Z,64.70
2023-02-21T23:50:04.083Z,64.80
2023-02-21T23:53:07.284Z,65.00
2023-02-21T23:56:13.996Z,64.90
2023-02-21T23:59:16.957Z,64.90
